createdAt,value
2017-12-04T00:02:06.352Z,18.33
2017-12-04T00:04:33.851Z,17.73
2017-12-04T00:07:01.379Z,18.70
2017-12-04T00:09:28.871Z,17.67
2017-12-04T00:11:56.382Z,19.47
2017-12-04T00:14:24.860Z,18.40
2017-12-04T00:16:52.354Z,18.90
2017-12-04T00:19:19.863Z,18.77
2017-12-04T00:21:47.384Z,17.87
2017-12-04T00:24:14.887Z,21.60
2017-12-04T00:26:42.395Z,18.13
2017-12-04T00:29:09.914Z,19.20
2017-12-04T00:31:37.432Z,19.10
2017-12-04T00:34:04.949Z,19.67
2017-12-04T00:36:32.518Z,19.53
2017-12-04T00:39:00.083Z,19.00
2017-12-04T00:41:27.642Z,19.80
2017-12-04T00:43:55.130Z,20.43
2017-12-04T00:46:22.640Z,22.93
2017-12-04T00:48:50.193Z,21.10
2017-12-04T00:51:17.884Z,21.37
2017-12-04T00:53:45.395Z,21.10
2017-12-04T00:56:12.892Z,20.67
2017-12-04T00:58:40.410Z,22.80
2017-12-04T01:01:08.686Z,22.20
2017-12-04T01:03:36.966Z,23.07
2017-12-04T01:06:05.224Z,21.10
2017-12-04T01:08:32.742Z,21.80
2017-12-04T01:11:00.286Z,23.17
2017-12-04T01:13:27.779Z,26.83
2017-12-04T01:15:55.248Z,22.37
2017-12-04T01:18:22.739Z,23.67
2017-12-04T01:20:51.000Z,23.43
2017-12-04T01:23:19.264Z,21.70
2017-12-04T01:25:46.745Z,21.73
2017-12-04T01:28:14.979Z,22.57
2017-12-04T01:30:42.496Z,22.97
2017-12-04T01:33:10.849Z,23.63
2017-12-04T01:35:39.099Z,22.00
2017-12-04T01:38:06.558Z,23.83
2017-12-04T01:40:34.031Z,23.23
2017-12-04T01:43:01.572Z,23.23
2017-12-04T01:45:29.051Z,24.13
2017-12-04T01:47:57.305Z,23.93
2017-12-04T01:50:24.777Z,24.70
2017-12-04T01:52:52.250Z,23.93
2017-12-04T01:55:20.664Z,25.20
2017-12-04T01:57:48.162Z,27.20
2017-12-04T02:00:15.665Z,28.20
2017-12-04T02:02:43.906Z,26.30
2017-12-04T02:05:11.447Z,25.50
2017-12-04T02:07:38.943Z,23.93
2017-12-04T02:10:07.185Z,25.93
2017-12-04T02:12:34.637Z,24.47
2017-12-04T02:15:02.105Z,23.90
2017-12-04T02:17:29.582Z,27.37
2017-12-04T02:19:57.058Z,26.10
2017-12-04T02:22:25.293Z,27.23
2017-12-04T02:24:52.786Z,24.10
2017-12-04T02:27:20.250Z,25.50
2017-12-04T02:29:48.482Z,24.70
2017-12-04T02:32:15.986Z,23.97
2017-12-04T02:34:43.479Z,24.17
2017-12-04T02:37:11.050Z,22.30
2017-12-04T02:39:38.529Z,26.57
2017-12-04T02:42:06.007Z,28.53
2017-12-04T02:44:34.274Z,27.30
2017-12-04T02:47:01.824Z,24.07
2017-12-04T02:49:30.074Z,25.57
2017-12-04T02:51:57.568Z,25.97
2017-12-04T02:54:25.059Z,26.53
2017-12-04T02:56:52.572Z,24.97
2017-12-04T02:59:20.075Z,24.20
2017-12-04T03:01:48.314Z,24.10
2017-12-04T03:04:15.801Z,24.83
2017-12-04T03:06:44.050Z,23.30
2017-12-04T03:09:11.588Z,24.70
2017-12-04T03:11:39.078Z,25.50
2017-12-04T03:14:06.606Z,25.77
2017-12-04T03:16:34.111Z,25.20
2017-12-04T03:19:02.360Z,23.90
2017-12-04T03:21:29.844Z,23.27
2017-12-04T03:23:58.086Z,23.20
2017-12-04T03:26:25.558Z,26.00
2017-12-04T03:28:53.058Z,23.30
2017-12-04T03:31:21.406Z,20.43
2017-12-04T03:33:48.918Z,24.33
2017-12-04T03:36:16.430Z,23.63
2017-12-04T03:38:43.894Z,22.53
2017-12-04T03:41:12.239Z,26.50
2017-12-04T03:43:39.922Z,24.43
2017-12-04T03:46:07.405Z,22.90
2017-12-04T03:48:35.631Z,25.70
2017-12-04T03:51:03.104Z,27.27
2017-12-04T03:53:30.562Z,24.37
2017-12-04T03:55:58.035Z,25.70
2017-12-04T03:58:25.502Z,26.80
2017-12-04T04:00:52.999Z,25.33
2017-12-04T04:03:20.466Z,26.30
2017-12-04T04:05:47.931Z,27.60
2017-12-04T04:08:15.534Z,23.87
2017-12-04T04:10:43.779Z,24.83
2017-12-04T04:13:11.266Z,21.73
2017-12-04T04:15:39.547Z,24.80
2017-12-04T04:18:07.770Z,23.73
2017-12-04T04:20:35.307Z,22.10
2017-12-04T04:23:02.862Z,22.43
2017-12-04T04:25:30.295Z,23.17
2017-12-04T04:27:57.939Z,21.67
2017-12-04T04:30:25.391Z,24.80
2017-12-04T04:32:53.028Z,24.23
2017-12-04T04:35:20.518Z,24.30
2017-12-04T04:37:47.987Z,22.80
2017-12-04T04:40:15.476Z,26.70
2017-12-04T04:42:43.709Z,24.80
2017-12-04T04:45:11.242Z,23.73
2017-12-04T04:47:38.724Z,24.93
2017-12-04T04:50:06.284Z,22.40
2017-12-04T04:52:33.765Z,23.90
2017-12-04T04:55:01.337Z,20.80
2017-12-04T04:57:29.577Z,24.50
2017-12-04T04:59:57.084Z,22.80
2017-12-04T05:02:25.321Z,23.50
2017-12-04T05:04:52.811Z,23.10
2017-12-04T05:07:21.065Z,26.43
2017-12-04T05:09:48.533Z,25.17
2017-12-04T05:12:16.119Z,25.70
2017-12-04T05:14:44.342Z,25.20
2017-12-04T05:17:11.884Z,26.67
2017-12-04T05:19:39.750Z,24.07
2017-12-04T05:22:07.225Z,25.50
2017-12-04T05:24:34.711Z,27.40
2017-12-04T05:27:02.177Z,25.40
2017-12-04T05:29:30.431Z,26.63
2017-12-04T05:31:57.919Z,26.97
2017-12-04T05:34:26.202Z,30.83
2017-12-04T05:36:53.738Z,30.77
2017-12-04T05:39:21.209Z,30.77
2017-12-04T05:41:49.453Z,31.37
2017-12-04T05:44:16.960Z,28.80
2017-12-04T05:46:44.437Z,29.57
2017-12-04T05:49:11.939Z,31.00
2017-12-04T05:51:39.434Z,30.70
2017-12-04T05:54:07.682Z,29.33
2017-12-04T05:56:35.170Z,32.37
2017-12-04T05:59:03.099Z,29.30
2017-12-04T06:01:30.595Z,33.80
2017-12-04T06:03:58.122Z,30.27
2017-12-04T06:06:25.590Z,32.20
2017-12-04T06:08:53.309Z,34.27
2017-12-04T06:11:20.765Z,31.07
2017-12-04T06:13:48.248Z,34.87
2017-12-04T06:16:15.723Z,35.40
2017-12-04T06:18:43.212Z,34.40
2017-12-04T06:21:10.709Z,35.53
2017-12-04T06:23:38.181Z,35.07
2017-12-04T06:26:06.237Z,32.00
2017-12-04T06:28:34.203Z,36.80
2017-12-04T06:31:01.702Z,32.53
2017-12-04T06:33:29.202Z,35.60
2017-12-04T06:35:56.763Z,35.77
2017-12-04T06:38:24.219Z,32.27
2017-12-04T06:40:51.841Z,31.27
2017-12-04T06:43:19.311Z,37.50
2017-12-04T06:45:47.556Z,32.07
2017-12-04T06:48:15.240Z,32.73
2017-12-04T06:50:43.721Z,32.50
2017-12-04T06:53:11.306Z,33.43
2017-12-04T06:55:38.816Z,28.90
2017-12-04T06:58:06.318Z,28.23
2017-12-04T07:00:33.978Z,32.20
2017-12-04T07:03:02.361Z,31.10
2017-12-04T07:05:30.689Z,31.23
2017-12-04T07:07:58.556Z,30.53
2017-12-04T07:10:26.160Z,28.53
2017-12-04T07:12:54.644Z,27.60
2017-12-04T07:15:23.123Z,30.07
2017-12-04T07:17:51.604Z,26.27
2017-12-04T07:20:19.971Z,30.57
2017-12-04T07:22:47.848Z,27.97
2017-12-04T07:25:15.664Z,26.27
2017-12-04T07:27:43.377Z,29.13
2017-12-04T07:30:11.139Z,25.50
2017-12-04T07:32:38.901Z,26.87
2017-12-04T07:35:06.625Z,24.50
2017-12-04T07:37:34.288Z,29.97
2017-12-04T07:40:02.082Z,27.40
2017-12-04T07:42:29.849Z,27.43
2017-12-04T07:44:57.924Z,27.90
2017-12-04T07:47:25.547Z,26.97
2017-12-04T07:49:53.348Z,28.37
2017-12-04T07:52:21.042Z,28.03
2017-12-04T07:54:49.796Z,28.90
2017-12-04T07:57:17.560Z,30.83
2017-12-04T07:59:45.393Z,33.93
2017-12-04T08:02:13.497Z,29.87
2017-12-04T08:04:41.466Z,29.63
2017-12-04T08:07:10.008Z,31.80
2017-12-04T08:09:40.351Z,33.67
2017-12-04T08:12:10.064Z,32.20
2017-12-04T08:14:40.331Z,32.17
2017-12-04T08:17:08.373Z,29.87
2017-12-04T08:19:36.340Z,37.07
2017-12-04T08:22:04.002Z,32.53
2017-12-04T08:24:32.088Z,32.73
2017-12-04T08:27:00.099Z,31.83
2017-12-04T08:29:28.863Z,34.37
2017-12-04T08:31:59.241Z,31.80
2017-12-04T08:34:27.988Z,37.60
2017-12-04T08:36:57.020Z,33.90
2017-12-04T08:39:24.630Z,33.00
2017-12-04T08:41:52.561Z,32.87
2017-12-04T08:44:21.545Z,31.10
2017-12-04T08:46:50.336Z,33.90
2017-12-04T08:49:18.513Z,30.80
2017-12-04T08:51:47.397Z,31.43
2017-12-04T08:54:15.779Z,31.67
2017-12-04T08:56:43.700Z,31.13
2017-12-04T08:59:11.376Z,28.57
2017-12-04T09:01:39.063Z,28.27
2017-12-04T09:04:07.031Z,27.27
2017-12-04T09:06:35.101Z,28.00
2017-12-04T09:09:04.591Z,28.90
2017-12-04T09:11:34.011Z,28.90
2017-12-04T09:14:01.882Z,29.60
2017-12-04T09:16:31.797Z,29.07
2017-12-04T09:18:59.535Z,30.20
2017-12-04T09:21:28.124Z,30.37
2017-12-04T09:23:57.033Z,29.93
2017-12-04T09:26:25.103Z,32.43
2017-12-04T09:28:54.813Z,34.30
2017-12-04T09:31:23.380Z,29.07
2017-12-04T09:33:51.864Z,30.27
2017-12-04T09:36:21.876Z,29.97
2017-12-04T09:38:55.560Z,30.50
2017-12-04T09:41:23.929Z,27.77
2017-12-04T09:43:51.640Z,30.40
2017-12-04T09:46:19.602Z,33.40
2017-12-04T09:48:49.602Z,30.77
2017-12-04T09:51:18.321Z,33.23
2017-12-04T09:53:47.007Z,33.33
2017-12-04T09:56:14.615Z,31.30
2017-12-04T09:58:43.675Z,30.67
2017-12-04T10:01:11.507Z,31.73
2017-12-04T10:03:39.934Z,28.53
2017-12-04T10:06:09.879Z,31.70
2017-12-04T10:08:37.473Z,30.83
2017-12-04T10:11:06.014Z,29.63
2017-12-04T10:13:33.893Z,30.87
2017-12-04T10:16:02.694Z,29.90
2017-12-04T10:18:32.157Z,27.80
2017-12-04T10:20:59.736Z,29.50
2017-12-04T10:23:27.348Z,28.17
2017-12-04T10:25:55.155Z,27.33
2017-12-04T10:28:22.934Z,30.27
2017-12-04T10:30:50.608Z,30.67
2017-12-04T10:33:18.216Z,32.33
2017-12-04T10:35:45.880Z,31.13
2017-12-04T10:38:13.508Z,30.30
2017-12-04T10:40:41.972Z,31.13
2017-12-04T10:43:11.609Z,33.77
2017-12-04T10:45:40.013Z,31.20
2017-12-04T10:48:08.400Z,34.13
2017-12-04T10:50:36.017Z,32.67
2017-12-04T10:53:03.932Z,30.70
2017-12-04T10:55:31.542Z,32.27
2017-12-04T10:57:59.417Z,31.20
2017-12-04T11:00:28.218Z,30.20
2017-12-04T11:02:56.607Z,30.87
2017-12-04T11:05:24.370Z,32.70
2017-12-04T11:07:52.600Z,28.43
2017-12-04T11:10:20.190Z,33.93
2017-12-04T11:12:48.428Z,33.53
2017-12-04T11:15:17.119Z,27.67
2017-12-04T11:17:44.963Z,30.90
2017-12-04T11:20:14.171Z,30.63
2017-12-04T11:22:42.931Z,33.00
2017-12-04T11:25:10.852Z,31.07
2017-12-04T11:27:38.540Z,29.87
2017-12-04T11:30:07.269Z,27.13
2017-12-04T11:32:36.019Z,27.27
2017-12-04T11:35:04.541Z,27.50
2017-12-04T11:37:32.253Z,25.50
2017-12-04T11:40:00.188Z,27.23
2017-12-04T11:42:27.728Z,27.47
2017-12-04T11:44:55.550Z,25.77
2017-12-04T11:47:23.210Z,25.13
2017-12-04T11:49:50.876Z,25.20
2017-12-04T11:52:19.603Z,26.53
2017-12-04T11:54:47.557Z,25.53
2017-12-04T11:57:16.280Z,25.17
2017-12-04T11:59:43.819Z,25.60
2017-12-04T12:02:15.426Z,23.90
2017-12-04T12:04:44.426Z,25.53
2017-12-04T12:07:12.025Z,25.03
2017-12-04T12:09:39.499Z,24.10
2017-12-04T12:12:06.999Z,21.80
2017-12-04T12:14:36.060Z,25.47
2017-12-04T12:17:03.532Z,25.67
2017-12-04T12:19:31.012Z,25.40
2017-12-04T12:21:58.495Z,25.43
2017-12-04T12:24:26.767Z,24.47
2017-12-04T12:26:55.009Z,26.10
2017-12-04T12:29:22.538Z,23.83
2017-12-04T12:31:50.053Z,23.47
2017-12-04T12:34:17.523Z,26.50
2017-12-04T12:36:45.743Z,24.37
2017-12-04T12:39:13.233Z,25.63
2017-12-04T12:42:00.536Z,26.97
2017-12-04T12:44:28.521Z,26.37
2017-12-04T12:46:56.051Z,25.87
2017-12-04T12:49:23.567Z,25.43
2017-12-04T12:51:51.855Z,26.70
2017-12-04T12:54:20.086Z,24.17
2017-12-04T12:56:47.568Z,24.70
2017-12-04T12:59:15.051Z,23.70
2017-12-04T13:01:42.521Z,25.10
2017-12-04T13:04:10.005Z,26.80
2017-12-04T13:06:37.485Z,24.50
2017-12-04T13:09:04.948Z,25.97
2017-12-04T13:11:32.444Z,25.00
2017-12-04T13:14:00.679Z,27.13
2017-12-04T13:16:30.980Z,25.50
2017-12-04T13:18:58.544Z,25.30
2017-12-04T13:21:26.023Z,24.50
2017-12-04T13:23:53.495Z,24.07
2017-12-04T13:26:21.002Z,25.53
2017-12-04T13:28:48.427Z,25.37
2017-12-04T13:31:15.904Z,25.60
2017-12-04T13:33:55.173Z,28.77
2017-12-04T13:36:34.611Z,27.53
2017-12-04T13:39:02.116Z,24.87
2017-12-04T13:41:30.353Z,23.20
2017-12-04T13:43:57.835Z,22.03
2017-12-04T13:46:25.330Z,22.00
2017-12-04T13:48:52.979Z,23.67
2017-12-04T13:51:21.477Z,24.90
2017-12-04T13:53:48.995Z,21.20
2017-12-04T13:56:16.493Z,20.30
2017-12-04T13:58:44.756Z,21.70
2017-12-04T14:01:12.995Z,20.63
2017-12-04T14:03:41.995Z,19.80
2017-12-04T14:06:09.529Z,23.40
2017-12-04T14:08:37.192Z,20.20
2017-12-04T14:11:04.690Z,21.73
2017-12-04T14:13:32.618Z,22.93
2017-12-04T14:16:00.339Z,23.80
2017-12-04T14:18:28.700Z,24.43
2017-12-04T14:20:57.076Z,24.70
2017-12-04T14:23:25.316Z,23.17
2017-12-04T14:25:52.886Z,21.40
2017-12-04T14:28:20.355Z,23.30
2017-12-04T14:30:47.839Z,23.00
2017-12-04T14:33:16.904Z,22.93
2017-12-04T14:35:44.466Z,24.80
2017-12-04T14:38:11.949Z,23.20
2017-12-04T14:40:40.336Z,23.67
2017-12-04T14:43:09.507Z,27.87
2017-12-04T14:45:37.149Z,27.20
2017-12-04T14:48:04.627Z,27.10
2017-12-04T14:50:32.385Z,28.07
2017-12-04T14:53:00.693Z,28.90
2017-12-04T14:55:28.311Z,27.30
2017-12-04T14:57:56.091Z,26.17
2017-12-04T15:00:25.373Z,27.27
2017-12-04T15:02:54.196Z,27.73
2017-12-04T15:05:22.543Z,29.73
2017-12-04T15:07:50.800Z,27.97
2017-12-04T15:10:18.356Z,28.50
2017-12-04T15:12:48.029Z,30.00
2017-12-04T15:15:17.682Z,31.53
2017-12-04T15:17:45.632Z,29.87
2017-12-04T15:20:13.859Z,30.67
2017-12-04T15:22:41.409Z,32.73
2017-12-04T15:25:09.851Z,29.57
2017-12-04T15:27:37.377Z,30.27
2017-12-04T15:30:04.849Z,32.13
2017-12-04T15:32:32.545Z,31.43
2017-12-04T15:35:00.154Z,30.47
2017-12-04T15:37:27.829Z,31.53
2017-12-04T15:39:55.322Z,29.90
2017-12-04T15:42:22.810Z,31.50
2017-12-04T15:44:50.355Z,32.93
2017-12-04T15:47:17.832Z,29.83
2017-12-04T15:49:45.411Z,31.77
2017-12-04T15:52:12.925Z,33.30
2017-12-04T15:54:40.443Z,34.37
2017-12-04T15:57:07.933Z,33.33
2017-12-04T15:59:35.438Z,33.40
2017-12-04T16:02:02.941Z,30.83
2017-12-04T16:04:31.268Z,31.43
2017-12-04T16:06:58.759Z,35.33
2017-12-04T16:09:27.925Z,34.47
2017-12-04T16:11:55.382Z,33.67
2017-12-04T16:14:23.023Z,35.97
2017-12-04T16:16:50.516Z,36.13
2017-12-04T16:19:19.506Z,36.80
2017-12-04T16:21:47.034Z,34.77
2017-12-04T16:24:14.524Z,36.53
2017-12-04T16:26:42.017Z,35.53
2017-12-04T16:29:10.269Z,34.37
2017-12-04T16:31:37.831Z,36.77
2017-12-04T16:34:06.842Z,37.60
2017-12-04T16:36:34.320Z,39.43
2017-12-04T16:39:01.774Z,37.70
2017-12-04T16:41:30.078Z,39.43
2017-12-04T16:43:57.581Z,37.00
2017-12-04T16:46:25.057Z,41.07
2017-12-04T16:48:53.307Z,39.70
2017-12-04T16:51:20.786Z,38.50
2017-12-04T16:53:48.258Z,40.60
2017-12-04T16:56:16.495Z,39.87
2017-12-04T16:58:44.771Z,41.27
2017-12-04T17:01:12.291Z,40.70
2017-12-04T17:03:39.784Z,42.63
2017-12-04T17:06:07.324Z,36.10
2017-12-04T17:08:34.806Z,37.83
2017-12-04T17:11:02.386Z,40.40
2017-12-04T17:13:29.884Z,41.70
2017-12-04T17:15:57.345Z,40.37
2017-12-04T17:18:24.807Z,39.77
2017-12-04T17:20:52.335Z,42.50
2017-12-04T17:23:20.729Z,41.07
2017-12-04T17:25:48.963Z,37.37
2017-12-04T17:28:16.497Z,39.70
2017-12-04T17:30:44.049Z,45.00
2017-12-04T17:33:11.702Z,44.00
2017-12-04T17:35:39.200Z,44.10
2017-12-04T17:38:07.481Z,41.80
2017-12-04T17:40:34.958Z,42.37
2017-12-04T17:43:02.505Z,39.60
2017-12-04T17:45:29.992Z,44.40
2017-12-04T17:47:58.242Z,44.80
2017-12-04T17:50:25.705Z,47.50
2017-12-04T17:52:54.075Z,45.20
2017-12-04T17:55:21.589Z,40.17
2017-12-04T17:57:49.071Z,48.97
2017-12-04T18:00:16.530Z,52.63
2017-12-04T18:02:44.070Z,48.83
2017-12-04T18:05:11.595Z,50.13
2017-12-04T18:07:39.862Z,46.40
2017-12-04T18:10:07.386Z,45.40
2017-12-04T18:12:34.986Z,47.40
2017-12-04T18:15:02.510Z,47.80
2017-12-04T18:17:30.005Z,49.47
2017-12-04T18:19:57.476Z,48.57
2017-12-04T18:22:24.964Z,44.83
2017-12-04T18:24:52.438Z,47.80
2017-12-04T18:27:19.925Z,46.07
2017-12-04T18:29:47.481Z,46.60
2017-12-04T18:32:14.962Z,48.07
2017-12-04T18:34:43.230Z,47.70
2017-12-04T18:37:11.539Z,50.43
2017-12-04T18:39:39.078Z,47.03
2017-12-04T18:42:06.611Z,47.73
2017-12-04T18:44:34.184Z,46.20
2017-12-04T18:47:01.713Z,43.90
2017-12-04T18:49:29.901Z,46.47
2017-12-04T18:51:58.439Z,46.57
2017-12-04T18:54:26.677Z,47.37
2017-12-04T18:56:54.949Z,47.97
2017-12-04T18:59:23.527Z,47.07
2017-12-04T19:01:51.952Z,47.17
2017-12-04T19:04:19.811Z,49.37
2017-12-04T19:06:47.386Z,49.07
2017-12-04T19:09:14.868Z,49.67
2017-12-04T19:11:42.602Z,51.20
2017-12-04T19:14:10.137Z,48.07
2017-12-04T19:16:41.074Z,48.97
2017-12-04T19:19:08.725Z,50.80
2017-12-04T19:21:36.251Z,52.23
2017-12-04T19:24:04.533Z,49.17
2017-12-04T19:26:32.452Z,50.60
2017-12-04T19:29:00.742Z,48.17
2017-12-04T19:31:28.241Z,56.30
2017-12-04T19:33:55.937Z,48.97
2017-12-04T19:36:24.194Z,52.03
2017-12-04T19:38:51.684Z,50.70
2017-12-04T19:41:19.442Z,48.70
2017-12-04T19:43:47.791Z,50.67
2017-12-04T19:46:15.330Z,53.97
2017-12-04T19:48:42.842Z,50.00
2017-12-04T19:51:10.601Z,50.70
2017-12-04T19:53:38.189Z,54.40
2017-12-04T19:56:05.807Z,52.63
2017-12-04T19:58:33.296Z,54.67
2017-12-04T20:01:01.553Z,54.80
2017-12-04T20:03:29.296Z,52.73
2017-12-04T20:06:03.683Z,52.73
2017-12-04T20:08:41.273Z,53.77
2017-12-04T20:11:15.948Z,51.20
2017-12-04T20:13:50.903Z,51.67
2017-12-04T20:33:59.939Z,48.63
2017-12-04T20:36:27.680Z,52.00
2017-12-04T20:38:55.242Z,44.97
2017-12-04T20:41:22.782Z,51.97
2017-12-04T20:43:50.286Z,55.00
2017-12-04T20:46:17.873Z,48.50
2017-12-04T20:48:45.470Z,49.40
2017-12-04T20:51:13.048Z,50.50
2017-12-04T20:53:40.603Z,48.80
2017-12-04T20:56:08.171Z,47.80
2017-12-04T20:58:35.995Z,46.03
2017-12-04T21:01:03.610Z,51.93
2017-12-04T21:03:31.118Z,49.93
2017-12-04T21:05:59.615Z,46.27
2017-12-04T21:08:39.263Z,46.50
2017-12-04T21:11:18.698Z,42.87
2017-12-04T21:13:58.033Z,43.97
2017-12-04T21:16:43.474Z,41.33
2017-12-04T21:19:11.849Z,44.97
2017-12-04T21:21:39.432Z,43.87
2017-12-04T21:24:07.799Z,47.07
2017-12-04T21:26:36.052Z,43.27
2017-12-04T21:29:03.661Z,44.80
2017-12-04T21:31:31.214Z,43.10
2017-12-04T21:33:58.691Z,43.37
2017-12-04T21:36:26.160Z,44.17
2017-12-04T21:38:53.731Z,44.27
2017-12-04T21:41:21.413Z,47.30
2017-12-04T21:43:48.895Z,43.20
2017-12-04T21:46:17.216Z,45.03
2017-12-04T21:48:44.806Z,44.90
2017-12-04T21:51:12.321Z,43.13
2017-12-04T21:53:39.872Z,43.23
2017-12-04T21:56:07.669Z,41.00
2017-12-04T21:58:35.173Z,42.00
2017-12-04T22:01:04.168Z,42.23
2017-12-04T22:03:32.548Z,43.53
2017-12-04T22:06:00.030Z,42.07
2017-12-04T22:08:27.516Z,46.37
2017-12-04T22:10:55.006Z,43.83
2017-12-04T22:13:22.498Z,45.20
2017-12-04T22:15:50.776Z,43.90
2017-12-04T22:18:19.032Z,43.67
2017-12-04T22:20:46.532Z,44.83
2017-12-04T22:23:14.091Z,46.97
2017-12-04T22:25:41.846Z,46.80
2017-12-04T22:28:09.359Z,47.53
2017-12-04T22:30:36.837Z,44.43
2017-12-04T22:33:05.126Z,46.70
2017-12-04T22:35:33.389Z,47.60
2017-12-04T22:38:00.896Z,47.03
2017-12-04T22:40:28.368Z,45.50
2017-12-04T22:42:55.847Z,45.60
2017-12-04T22:45:23.315Z,46.80
2017-12-04T22:47:50.786Z,44.73
2017-12-04T22:50:19.145Z,48.07
2017-12-04T22:52:46.687Z,43.93
2017-12-04T22:55:14.154Z,47.27
2017-12-04T22:57:41.622Z,46.30
2017-12-04T23:00:09.152Z,46.27
2017-12-04T23:02:36.621Z,41.23
2017-12-04T23:05:04.929Z,41.53
2017-12-04T23:07:32.484Z,40.30
2017-12-04T23:09:59.970Z,40.63
2017-12-04T23:12:27.482Z,42.33
2017-12-04T23:14:55.021Z,38.40
2017-12-04T23:17:22.547Z,39.87
2017-12-04T23:19:50.034Z,37.60
2017-12-04T23:22:17.623Z,38.20
2017-12-04T23:24:45.119Z,36.10
2017-12-04T23:27:12.648Z,32.47
2017-12-04T23:29:40.146Z,39.10
2017-12-04T23:32:08.410Z,37.57
2017-12-04T23:34:36.636Z,33.97
2017-12-04T23:37:04.931Z,36.30
2017-12-04T23:39:32.580Z,29.60
2017-12-04T23:42:00.056Z,36.43
2017-12-04T23:44:28.068Z,37.20
2017-12-04T23:46:55.583Z,30.47
2017-12-04T23:49:23.241Z,32.30
2017-12-04T23:51:50.731Z,29.87
2017-12-04T23:54:21.799Z,30.07
2017-12-04T23:56:49.303Z,33.00
2017-12-04T23:59:16.795Z,30.80
